createdAt,value
2022-08-17T00:01:18.492Z,3.40
2022-08-17T00:03:49.814Z,3.60
2022-08-17T00:06:18.391Z,4.25
2022-08-17T00:08:49.656Z,3.28
2022-08-17T00:11:24.305Z,2.42
2022-08-17T00:13:56.126Z,2.38
2022-08-17T00:16:56.392Z,3.13
2022-08-17T00:19:22.968Z,2.85
2022-08-17T00:22:32.563Z,3.50
2022-08-17T00:24:37.226Z,3.05
2022-08-17T00:27:03.832Z,2.80
2022-08-17T00:29:30.517Z,2.45
2022-08-17T00:31:57.023Z,3.50
2022-08-17T00:34:25.244Z,3.00
2022-08-17T00:36:54.483Z,2.72
2022-08-17T00:39:21.063Z,3.63
2022-08-17T00:41:47.841Z,3.38
2022-08-17T00:44:15.689Z,2.50
2022-08-17T00:46:43.436Z,4.10
2022-08-17T00:49:11.115Z,2.53
2022-08-17T00:51:40.055Z,3.20
2022-08-17T00:54:12.883Z,2.95
2022-08-17T00:56:44.627Z,3.47
2022-08-17T00:59:13.916Z,3.65
2022-08-17T01:01:40.851Z,2.95
2022-08-17T01:04:07.704Z,2.67
2022-08-17T01:06:34.665Z,2.53
2022-08-17T01:09:01.874Z,2.67
2022-08-17T01:11:29.593Z,2.83
2022-08-17T01:13:56.193Z,3.22
2022-08-17T01:16:22.720Z,3.25
2022-08-17T01:18:51.172Z,3.47
2022-08-17T01:21:30.602Z,2.88
2022-08-17T01:23:57.265Z,3.10
2022-08-17T01:26:23.883Z,2.75
2022-08-17T01:28:53.965Z,2.38
2022-08-17T01:31:22.903Z,2.60
2022-08-17T01:33:56.831Z,3.22
2022-08-17T01:38:50.185Z,2.13
2022-08-17T01:41:16.913Z,3.58
2022-08-17T01:43:55.256Z,2.75
2022-08-17T01:46:23.339Z,3.60
2022-08-17T01:48:51.256Z,2.63
2022-08-17T01:51:17.810Z,2.47
2022-08-17T01:53:49.588Z,2.10
2022-08-17T01:56:18.293Z,3.17
2022-08-17T01:58:45.043Z,2.08
2022-08-17T02:01:14.257Z,3.17
2022-08-17T02:03:41.263Z,1.98
2022-08-17T02:06:27.603Z,2.63
2022-08-17T02:09:01.609Z,3.42
2022-08-17T02:11:30.759Z,2.47
2022-08-17T02:14:03.453Z,2.90
2022-08-17T02:16:37.611Z,2.83
2022-08-17T02:19:09.054Z,2.22
2022-08-17T02:21:37.182Z,2.92
2022-08-17T02:24:04.622Z,2.35
2022-08-17T02:26:31.144Z,1.90
2022-08-17T02:28:57.658Z,3.15
2022-08-17T02:31:24.159Z,3.13
2022-08-17T02:34:04.033Z,2.13
2022-08-17T02:36:32.910Z,3.15
2022-08-17T02:39:00.268Z,2.05
2022-08-17T02:41:26.752Z,2.30
2022-08-17T02:43:53.684Z,3.72
2022-08-17T02:46:20.203Z,2.33
2022-08-17T02:48:46.819Z,2.22
2022-08-17T02:51:13.392Z,2.22
2022-08-17T02:53:40.181Z,2.40
2022-08-17T02:56:06.818Z,2.20
2022-08-17T02:58:35.360Z,2.25
2022-08-17T03:01:04.085Z,2.30
2022-08-17T03:03:30.643Z,2.08
2022-08-17T03:05:57.167Z,2.35
2022-08-17T03:08:23.992Z,3.08
2022-08-17T03:10:50.660Z,2.78
2022-08-17T03:13:17.406Z,2.17
2022-08-17T03:15:45.385Z,2.45
2022-08-17T03:18:19.249Z,2.60
2022-08-17T03:20:52.124Z,2.28
2022-08-17T03:23:18.815Z,2.45
2022-08-17T03:25:53.175Z,2.67
2022-08-17T03:28:20.004Z,2.92
2022-08-17T03:30:46.519Z,2.08
2022-08-17T03:33:13.074Z,2.30
2022-08-17T03:35:40.691Z,1.95
2022-08-17T03:38:07.918Z,2.08
2022-08-17T03:40:56.569Z,2.05
2022-08-17T03:43:22.252Z,2.10
2022-08-17T03:46:10.939Z,2.70
2022-08-17T03:49:12.550Z,1.60
2022-08-17T03:51:57.754Z,1.70
2022-08-17T03:54:42.746Z,2.42
2022-08-17T03:57:10.479Z,2.55
2022-08-17T03:59:37.432Z,1.75
2022-08-17T04:02:09.250Z,2.47
2022-08-17T04:04:36.316Z,1.40
2022-08-17T04:07:03.292Z,1.95
2022-08-17T04:09:29.815Z,1.88
2022-08-17T04:11:57.348Z,1.30
2022-08-17T04:14:31.242Z,1.20
2022-08-17T04:16:57.755Z,1.40
2022-08-17T04:19:24.270Z,1.17
2022-08-17T04:21:50.766Z,1.65
2022-08-17T04:24:17.248Z,0.90
2022-08-17T04:26:43.783Z,1.20
2022-08-17T04:29:21.470Z,1.13
2022-08-17T04:31:48.237Z,1.15
2022-08-17T04:34:14.799Z,1.20
2022-08-17T04:36:50.312Z,1.33
2022-08-17T04:39:17.112Z,0.98
2022-08-17T04:42:02.361Z,0.82
2022-08-17T04:44:37.349Z,1.27
2022-08-17T04:47:04.876Z,0.80
2022-08-17T04:49:32.638Z,0.80
2022-08-17T04:52:04.389Z,0.77
2022-08-17T04:54:31.461Z,1.15
2022-08-17T04:56:58.031Z,0.90
2022-08-17T04:59:24.603Z,0.90
2022-08-17T05:01:51.812Z,0.80
2022-08-17T05:04:34.023Z,0.80
2022-08-17T05:07:02.070Z,0.93
2022-08-17T05:09:29.102Z,0.75
2022-08-17T05:11:56.258Z,0.90
2022-08-17T05:14:33.223Z,0.70
2022-08-17T05:17:01.130Z,1.17
2022-08-17T05:19:28.721Z,0.80
2022-08-17T05:21:55.209Z,0.82
2022-08-17T05:24:42.633Z,0.85
2022-08-17T05:27:08.264Z,0.80
2022-08-17T05:29:35.726Z,0.70
2022-08-17T05:32:38.642Z,1.00
2022-08-17T05:34:56.450Z,2.10
2022-08-17T05:37:22.978Z,1.38
2022-08-17T05:39:49.552Z,0.90
2022-08-17T05:42:19.014Z,1.02
2022-08-17T05:44:45.583Z,1.27
2022-08-17T05:47:12.111Z,1.33
2022-08-17T05:49:38.799Z,1.23
2022-08-17T05:52:11.432Z,0.95
2022-08-17T05:54:47.229Z,0.98
2022-08-17T05:57:25.888Z,1.40
2022-08-17T05:59:52.435Z,1.10
2022-08-17T06:02:22.591Z,1.10
2022-08-17T06:05:07.976Z,0.93
2022-08-17T06:07:57.710Z,1.15
2022-08-17T06:10:24.366Z,1.20
2022-08-17T06:12:50.981Z,1.08
2022-08-17T06:15:19.503Z,1.33
2022-08-17T06:17:46.257Z,1.20
2022-08-17T06:20:13.713Z,1.17
2022-08-17T06:22:44.797Z,1.35
2022-08-17T06:25:31.599Z,1.58
2022-08-17T06:28:14.275Z,0.88
2022-08-17T06:31:00.241Z,1.63
2022-08-17T06:33:37.558Z,1.20
2022-08-17T06:36:09.527Z,1.33
2022-08-17T06:38:48.496Z,1.63
2022-08-17T06:41:20.647Z,1.60
2022-08-17T06:43:56.945Z,1.40
2022-08-17T06:46:29.558Z,1.65
2022-08-17T06:49:14.887Z,1.20
2022-08-17T06:52:01.632Z,1.55
2022-08-17T06:54:54.232Z,1.65
2022-08-17T06:57:20.734Z,2.22
2022-08-17T07:00:10.510Z,1.25
2022-08-17T07:02:55.649Z,2.20
2022-08-17T07:05:24.430Z,1.48
2022-08-17T07:08:01.804Z,1.08
2022-08-17T07:10:29.940Z,1.35
2022-08-17T07:12:58.787Z,1.52
2022-08-17T07:15:34.058Z,1.90
2022-08-17T07:18:00.790Z,1.77
2022-08-17T07:20:28.154Z,1.40
2022-08-17T07:23:01.896Z,1.95
2022-08-17T07:25:30.866Z,1.58
2022-08-17T07:28:00.279Z,1.55
2022-08-17T07:30:46.788Z,1.58
2022-08-17T07:33:34.300Z,1.40
2022-08-17T07:36:00.997Z,1.40
2022-08-17T07:38:28.748Z,1.02
2022-08-17T07:41:01.217Z,1.42
2022-08-17T07:43:31.046Z,2.00
2022-08-17T07:46:22.466Z,1.20
2022-08-17T07:48:50.536Z,1.38
2022-08-17T07:51:25.681Z,1.95
2022-08-17T07:54:09.105Z,1.13
2022-08-17T07:56:43.379Z,1.60
2022-08-17T07:59:14.988Z,1.48
2022-08-17T08:01:43.001Z,1.02
2022-08-17T08:04:37.568Z,1.25
2022-08-17T08:07:12.924Z,1.23
2022-08-17T08:09:46.587Z,1.17
2022-08-17T08:12:25.000Z,1.88
2022-08-17T08:15:01.294Z,1.60
2022-08-17T08:17:32.024Z,1.00
2022-08-17T08:19:59.873Z,1.73
2022-08-17T08:22:33.760Z,2.40
2022-08-17T08:25:07.422Z,1.67
2022-08-17T08:27:53.640Z,1.50
2022-08-17T08:30:21.594Z,1.35
2022-08-17T08:33:07.672Z,1.25
2022-08-17T08:35:34.446Z,1.30
2022-08-17T08:38:00.963Z,2.08
2022-08-17T08:40:42.998Z,1.42
2022-08-17T08:43:18.903Z,1.38
2022-08-17T08:46:04.321Z,1.00
2022-08-17T08:48:52.933Z,1.23
2022-08-17T08:51:36.083Z,0.95
2022-08-17T08:54:26.867Z,1.20
2022-08-17T08:59:57.743Z,0.90
2022-08-17T09:02:37.076Z,1.15
2022-08-17T09:05:14.457Z,1.02
2022-08-17T09:07:47.788Z,1.35
2022-08-17T09:10:15.158Z,1.05
2022-08-17T09:12:47.778Z,1.52
2022-08-17T09:15:18.384Z,1.05
2022-08-17T09:17:59.389Z,1.30
2022-08-17T09:20:49.601Z,1.20
2022-08-17T09:23:19.869Z,1.40
2022-08-17T09:25:51.666Z,1.40
2022-08-17T09:28:27.706Z,0.95
2022-08-17T09:30:56.232Z,1.20
2022-08-17T09:33:26.357Z,1.20
2022-08-17T09:35:55.680Z,1.00
2022-08-17T09:38:35.295Z,1.00
2022-08-17T09:41:09.411Z,1.45
2022-08-17T09:43:44.038Z,0.90
2022-08-17T09:46:19.492Z,0.98
2022-08-17T09:49:01.942Z,1.15
2022-08-17T09:51:48.173Z,0.88
2022-08-17T09:54:42.519Z,1.17
2022-08-17T09:57:31.845Z,0.98
2022-08-17T10:00:25.249Z,0.90
2022-08-17T10:03:10.719Z,0.95
2022-08-17T10:05:37.794Z,0.70
2022-08-17T10:08:23.213Z,0.98
2022-08-17T10:11:00.073Z,1.48
2022-08-17T10:13:41.379Z,0.73
2022-08-17T10:16:26.162Z,0.88
2022-08-17T10:18:52.623Z,0.70
2022-08-17T10:21:37.933Z,0.80
2022-08-17T10:24:26.062Z,0.80
2022-08-17T10:26:57.242Z,1.10
2022-08-17T10:29:32.718Z,0.88
2022-08-17T10:32:22.173Z,1.02
2022-08-17T10:35:07.616Z,0.57
2022-08-17T10:37:43.538Z,0.75
2022-08-17T10:40:24.756Z,0.80
2022-08-17T10:43:10.873Z,1.10
2022-08-17T10:48:07.371Z,0.80
2022-08-17T10:50:49.739Z,1.02
2022-08-17T10:53:46.075Z,1.00
2022-08-17T10:56:12.625Z,0.73
2022-08-17T10:58:50.282Z,1.10
2022-08-17T11:01:17.488Z,0.70
2022-08-17T11:03:55.416Z,0.70
2022-08-17T11:06:37.477Z,0.80
2022-08-17T11:09:10.798Z,1.23
2022-08-17T11:14:24.115Z,1.08
2022-08-17T11:17:04.339Z,1.00
2022-08-17T11:19:47.696Z,1.10
2022-08-17T11:22:22.320Z,0.63
2022-08-17T11:24:51.485Z,1.23
2022-08-17T11:27:29.147Z,1.13
2022-08-17T11:30:02.707Z,1.40
2022-08-17T11:32:32.753Z,1.52
2022-08-17T11:35:29.695Z,0.80
2022-08-17T11:38:16.246Z,1.08
2022-08-17T11:40:52.555Z,0.68
2022-08-17T11:43:32.397Z,0.98
2022-08-17T11:46:02.431Z,0.90
2022-08-17T11:48:54.660Z,1.38
2022-08-17T11:51:28.424Z,1.73
2022-08-17T11:54:14.762Z,1.00
2022-08-17T11:56:51.870Z,1.00
2022-08-17T11:59:32.779Z,1.10
2022-08-17T12:02:03.252Z,0.90
2022-08-17T12:04:34.187Z,1.42
2022-08-17T12:07:08.385Z,1.25
2022-08-17T12:09:39.228Z,1.27
2022-08-17T12:12:15.333Z,1.38
2022-08-17T12:17:41.003Z,0.82
2022-08-17T12:20:14.725Z,1.17
2022-08-17T12:22:47.191Z,0.90
2022-08-17T12:25:20.123Z,1.00
2022-08-17T12:28:05.245Z,1.38
2022-08-17T12:30:33.582Z,1.70
2022-08-17T12:33:00.616Z,1.05
2022-08-17T12:35:33.188Z,1.55
2022-08-17T12:38:00.504Z,1.05
2022-08-17T12:40:31.721Z,1.25
2022-08-17T12:43:00.824Z,1.00
2022-08-17T12:45:35.020Z,1.60
2022-08-17T12:48:06.676Z,0.85
2022-08-17T12:50:34.308Z,1.10
2022-08-17T12:53:02.532Z,1.10
2022-08-17T12:55:32.547Z,0.90
2022-08-17T12:58:01.731Z,0.73
2022-08-17T13:00:34.206Z,1.23
2022-08-17T13:03:03.463Z,1.48
2022-08-17T13:05:41.701Z,1.15
2022-08-17T13:08:14.259Z,0.80
2022-08-17T13:10:41.093Z,1.10
2022-08-17T13:13:22.599Z,1.23
2022-08-17T13:15:58.364Z,1.40
2022-08-17T13:18:39.688Z,1.05
2022-08-17T13:21:11.999Z,1.10
2022-08-17T13:23:38.510Z,1.70
2022-08-17T13:26:06.575Z,0.90
2022-08-17T13:28:36.161Z,0.93
2022-08-17T13:31:21.605Z,1.05
2022-08-17T13:33:48.365Z,1.13
2022-08-17T13:36:30.098Z,0.90
2022-08-17T13:39:26.310Z,1.63
2022-08-17T13:41:55.452Z,0.90
2022-08-17T13:44:36.934Z,0.85
2022-08-17T13:47:05.148Z,0.75
2022-08-17T13:49:40.981Z,0.90
2022-08-17T13:52:35.383Z,0.87
2022-08-17T13:55:15.890Z,0.90
2022-08-17T13:57:45.520Z,1.20
2022-08-17T14:00:30.632Z,1.17
2022-08-17T14:02:57.883Z,0.75
2022-08-17T14:05:24.993Z,0.98
2022-08-17T14:07:56.211Z,1.05
2022-08-17T14:10:23.403Z,1.23
2022-08-17T14:12:50.655Z,0.95
2022-08-17T14:15:20.547Z,0.93
2022-08-17T14:17:49.136Z,0.93
2022-08-17T14:20:16.870Z,0.90
2022-08-17T14:22:45.130Z,0.82
2022-08-17T14:25:13.584Z,0.90
2022-08-17T14:27:51.864Z,1.02
2022-08-17T14:30:20.695Z,2.08
2022-08-17T14:32:52.014Z,1.00
2022-08-17T14:35:19.258Z,0.80
2022-08-17T14:37:48.167Z,1.20
2022-08-17T14:40:15.756Z,1.08
2022-08-17T14:42:43.769Z,1.05
2022-08-17T14:45:27.391Z,1.00
2022-08-17T14:47:59.044Z,1.02
2022-08-17T14:50:27.248Z,1.50
2022-08-17T14:52:56.343Z,1.02
2022-08-17T14:55:24.793Z,1.13
2022-08-17T14:57:51.448Z,1.20
2022-08-17T15:00:18.232Z,1.50
2022-08-17T15:02:51.024Z,1.27
2022-08-17T15:05:17.717Z,1.23
2022-08-17T15:07:44.688Z,1.27
2022-08-17T15:10:12.402Z,1.33
2022-08-17T15:12:40.091Z,1.00
2022-08-17T15:15:07.646Z,1.20
2022-08-17T15:17:54.696Z,1.20
2022-08-17T15:20:27.647Z,1.40
2022-08-17T15:22:55.774Z,1.02
2022-08-17T15:25:23.251Z,1.15
2022-08-17T15:27:50.038Z,1.30
2022-08-17T15:30:16.903Z,1.08
2022-08-17T15:32:50.885Z,0.90
2022-08-17T15:35:25.167Z,0.90
2022-08-17T15:37:54.244Z,1.00
2022-08-17T15:40:20.801Z,1.10
2022-08-17T15:42:47.288Z,1.25
2022-08-17T15:45:14.263Z,1.38
2022-08-17T15:47:40.887Z,1.02
2022-08-17T15:50:07.767Z,1.25
2022-08-17T15:52:40.416Z,1.05
2022-08-17T15:55:09.928Z,1.10
2022-08-17T15:57:36.510Z,1.15
2022-08-17T16:00:03.711Z,1.20
2022-08-17T16:03:15.060Z,1.17
2022-08-17T16:05:24.877Z,1.30
2022-08-17T16:07:52.159Z,1.10
2022-08-17T16:10:19.522Z,1.13
2022-08-17T16:12:47.338Z,0.90
2022-08-17T16:15:13.971Z,1.55
2022-08-17T16:17:43.887Z,1.20
2022-08-17T16:20:20.554Z,1.35
2022-08-17T16:22:48.897Z,1.20
2022-08-17T16:25:20.349Z,0.98
2022-08-17T16:27:48.743Z,1.13
2022-08-17T16:30:17.735Z,1.35
2022-08-17T16:32:45.335Z,1.63
2022-08-17T16:35:15.038Z,1.15
2022-08-17T16:37:45.565Z,1.13
2022-08-17T16:40:12.887Z,0.88
2022-08-17T16:42:43.227Z,1.10
2022-08-17T16:45:11.854Z,1.23
2022-08-17T16:47:38.926Z,1.20
2022-08-17T16:50:06.508Z,1.58
2022-08-17T16:52:33.815Z,1.20
2022-08-17T16:55:01.791Z,1.20
2022-08-17T16:57:29.916Z,1.20
2022-08-17T16:59:57.175Z,1.23
2022-08-17T17:02:25.645Z,1.13
2022-08-17T17:04:57.896Z,1.15
2022-08-17T17:07:42.877Z,1.27
2022-08-17T17:10:14.291Z,1.40
2022-08-17T17:13:02.041Z,1.27
2022-08-17T17:15:31.687Z,1.25
2022-08-17T17:18:06.946Z,1.10
2022-08-17T17:20:43.073Z,1.35
2022-08-17T17:23:14.854Z,0.90
2022-08-17T17:25:51.727Z,1.33
2022-08-17T17:28:18.532Z,1.95
2022-08-17T17:30:58.546Z,1.30
2022-08-17T17:33:49.593Z,1.10
2022-08-17T17:36:16.346Z,1.38
2022-08-17T17:38:47.861Z,1.00
2022-08-17T17:41:26.367Z,1.02
2022-08-17T17:43:56.613Z,0.93
2022-08-17T17:46:31.571Z,1.10
2022-08-17T17:48:58.701Z,1.20
2022-08-17T17:52:06.606Z,1.27
2022-08-17T17:54:22.692Z,1.83
2022-08-17T17:57:14.827Z,1.42
2022-08-17T17:59:56.395Z,1.23
2022-08-17T18:02:51.910Z,1.20
2022-08-17T18:05:38.900Z,1.75
2022-08-17T18:08:16.839Z,1.40
2022-08-17T18:10:47.502Z,1.30
2022-08-17T18:13:28.476Z,1.95
2022-08-17T18:15:56.247Z,1.33
2022-08-17T18:18:38.165Z,1.50
2022-08-17T18:21:07.579Z,1.60
2022-08-17T18:23:34.466Z,1.50
2022-08-17T18:26:02.190Z,1.50
2022-08-17T18:28:28.948Z,1.23
2022-08-17T18:31:14.614Z,1.27
2022-08-17T18:33:43.328Z,1.55
2022-08-17T18:36:11.927Z,1.40
2022-08-17T18:38:40.466Z,1.20
2022-08-17T18:41:18.934Z,1.00
2022-08-17T18:43:57.799Z,1.20
2022-08-17T18:46:28.737Z,1.30
2022-08-17T18:49:01.315Z,1.20
2022-08-17T18:51:40.548Z,1.40
2022-08-17T18:54:14.651Z,1.38
2022-08-17T18:56:49.114Z,2.03
2022-08-17T18:59:48.810Z,2.13
2022-08-17T19:02:24.238Z,1.40
2022-08-17T19:04:58.657Z,1.20
2022-08-17T19:07:45.455Z,1.52
2022-08-17T19:10:21.375Z,1.63
2022-08-17T19:12:48.066Z,1.58
2022-08-17T19:15:16.637Z,1.20
2022-08-17T19:17:50.417Z,1.38
2022-08-17T19:20:24.385Z,1.60
2022-08-17T19:23:00.505Z,1.33
2022-08-17T19:25:33.817Z,1.20
2022-08-17T19:28:04.010Z,1.58
2022-08-17T19:30:39.316Z,1.33
2022-08-17T19:33:09.206Z,2.10
2022-08-17T19:35:49.564Z,1.30
2022-08-17T19:38:25.359Z,1.52
2022-08-17T19:40:59.434Z,1.10
2022-08-17T19:43:49.116Z,1.40
2022-08-17T19:46:28.079Z,1.38
2022-08-17T19:49:14.850Z,1.45
2022-08-17T19:51:45.028Z,1.25
2022-08-17T19:54:15.296Z,1.58
2022-08-17T19:57:08.733Z,1.40
2022-08-17T19:59:46.787Z,1.45
2022-08-17T20:02:32.675Z,1.50
2022-08-17T20:05:02.086Z,1.52
2022-08-17T20:07:34.906Z,1.77
2022-08-17T20:10:05.142Z,1.60
2022-08-17T20:12:35.311Z,1.35
2022-08-17T20:15:13.825Z,1.73
2022-08-17T20:17:41.980Z,1.40
2022-08-17T20:20:29.734Z,1.60
2022-08-17T20:22:59.896Z,1.20
2022-08-17T20:25:42.628Z,1.77
2022-08-17T20:28:17.703Z,1.25
2022-08-17T20:30:44.870Z,1.73
2022-08-17T20:33:28.861Z,1.10
2022-08-17T20:36:01.888Z,2.17
2022-08-17T20:38:40.312Z,1.50
2022-08-17T20:41:11.239Z,1.48
2022-08-17T20:43:38.019Z,2.17
2022-08-17T20:46:08.314Z,1.90
2022-08-17T20:48:38.925Z,1.73
2022-08-17T20:51:26.343Z,1.67
2022-08-17T20:53:55.932Z,1.40
2022-08-17T20:56:41.365Z,1.30
2022-08-17T20:59:08.185Z,1.27
2022-08-17T21:01:37.766Z,1.35
2022-08-17T21:04:07.260Z,2.00
2022-08-17T21:06:33.795Z,1.38
2022-08-17T21:09:12.750Z,2.45
2022-08-17T21:12:03.242Z,1.60
2022-08-17T21:14:37.568Z,1.95
2022-08-17T21:17:07.262Z,1.20
2022-08-17T21:19:44.388Z,1.10
2022-08-17T21:22:40.692Z,1.80
2022-08-17T21:25:10.572Z,1.27
2022-08-17T21:27:45.441Z,1.55
2022-08-17T21:30:33.960Z,1.40
2022-08-17T21:33:16.863Z,1.42
2022-08-17T21:36:02.246Z,1.63
2022-08-17T21:38:34.334Z,1.45
2022-08-17T21:41:01.622Z,1.80
2022-08-17T21:43:33.100Z,1.23
2022-08-17T21:46:09.481Z,1.25
2022-08-17T21:48:44.163Z,1.48
2022-08-17T21:51:11.983Z,2.45
2022-08-17T21:53:38.924Z,1.85
2022-08-17T21:56:06.615Z,2.05
2022-08-17T21:58:40.327Z,1.20
2022-08-17T22:01:13.439Z,1.52
2022-08-17T22:03:41.061Z,1.37
2022-08-17T22:06:24.031Z,1.40
2022-08-17T22:08:58.237Z,1.40
2022-08-17T22:11:25.195Z,1.30
2022-08-17T22:13:51.826Z,1.67
2022-08-17T22:16:28.811Z,1.38
2022-08-17T22:18:58.125Z,1.90
2022-08-17T22:21:25.434Z,1.83
2022-08-17T22:24:06.457Z,2.40
2022-08-17T22:26:52.132Z,1.58
2022-08-17T22:29:37.825Z,2.33
2022-08-17T22:32:05.031Z,3.10
2022-08-17T22:34:31.798Z,2.20
2022-08-17T22:37:17.326Z,1.70
2022-08-17T22:39:44.811Z,1.60
2022-08-17T22:42:15.003Z,2.42
2022-08-17T22:44:47.927Z,1.80
2022-08-17T22:47:14.415Z,2.08
2022-08-17T22:49:53.117Z,1.92
2022-08-17T22:52:32.811Z,2.08
2022-08-17T22:55:25.859Z,1.65
2022-08-17T22:58:11.181Z,1.50
2022-08-17T23:00:37.656Z,1.63
2022-08-17T23:03:24.546Z,1.77
2022-08-17T23:06:11.186Z,2.53
2022-08-17T23:08:59.354Z,2.10
2022-08-17T23:11:42.960Z,1.50
2022-08-17T23:14:15.782Z,1.55
2022-08-17T23:16:45.262Z,1.42
2022-08-17T23:19:12.759Z,1.33
2022-08-17T23:21:39.565Z,2.25
2022-08-17T23:24:07.598Z,1.13
2022-08-17T23:26:39.336Z,1.38
2022-08-17T23:29:06.784Z,1.42
2022-08-17T23:31:36.963Z,2.03
2022-08-17T23:34:04.984Z,1.52
2022-08-17T23:36:34.214Z,1.42
2022-08-17T23:39:00.799Z,1.10
2022-08-17T23:41:28.860Z,1.58
2022-08-17T23:43:55.500Z,1.98
2022-08-17T23:46:25.238Z,1.42
2022-08-17T23:48:55.223Z,1.83
2022-08-17T23:51:23.905Z,1.38
2022-08-17T23:53:52.715Z,1.60
2022-08-17T23:56:25.784Z,1.20
2022-08-17T23:58:53.137Z,1.27
